Time;durP1;ratioP1;P1;durP2;ratioP2;P2;SDS_P1;SDS_P2;PMS_P1;PMS_P2;Temp;Humidity;BMP_temperature;BMP_pressure;BME280_temperature;BME280_humidity;BME280_pressure;Samples;Min_cycle;Max_cycle;Signal;HPM_P1;HPM_P2
2021/12/16 00:01:45;;;;;;;82.53;22.83;;;1.00;99.90;;;;;;5036727;28;20509;-69
2021/12/16 00:06:30;;;;;;;54.45;18.75;;;0.90;99.90;;;;;;5036110;28;20044;-69
2021/12/16 00:09:08;;;;;;;64.35;20.48;;;0.90;99.90;;;;;;5036559;28;20475;-69
2021/12/16 00:35:41;;;;;;;35.50;15.43;;;0.80;99.90;;;;;;5035052;28;20060;-69
2021/12/16 00:38:09;;;;;;;36.60;16.00;;;0.80;99.90;;;;;;5036416;28;20044;-69
2021/12/16 00:40:40;;;;;;;32.53;13.73;;;0.80;99.90;;;;;;5035725;28;20718;-71
2021/12/16 00:43:21;;;;;;;35.45;14.27;;;0.80;99.90;;;;;;5036116;28;20470;-69
2021/12/16 00:56:03;;;;;;;35.88;14.27;;;0.80;99.90;;;;;;5038896;28;20048;-70
2021/12/16 00:58:43;;;;;;;28.48;13.45;;;0.80;99.90;;;;;;5038649;28;20526;-69
2021/12/16 01:03:53;;;;;;;35.00;14.77;;;0.80;99.90;;;;;;5040429;28;19920;-69
2021/12/16 01:07:04;;;;;;;35.08;14.65;;;0.80;99.90;;;;;;5037034;28;20049;-71
2021/12/16 01:51:05;;;;;;;27.23;13.57;;;0.80;99.90;;;;;;5038587;28;20040;-70
2021/12/16 01:53:53;;;;;;;28.05;13.45;;;0.80;99.90;;;;;;5039118;28;20044;-69
2021/12/16 01:59:24;;;;;;;28.25;13.65;;;0.90;99.90;;;;;;4958955;28;20570;-69
2021/12/16 02:01:59;;;;;;;26.25;12.52;;;0.80;99.90;;;;;;5020115;28;20067;-70
2021/12/16 02:04:39;;;;;;;25.98;12.50;;;0.80;99.90;;;;;;5036660;28;20049;-69
2021/12/16 02:07:23;;;;;;;23.98;10.93;;;0.90;99.90;;;;;;5036298;28;20056;-69
2021/12/16 02:09:50;;;;;;;23.92;11.80;;;0.80;99.90;;;;;;5036674;28;20036;-69
2021/12/16 02:12:47;;;;;;;;;;;0.80;99.90;;;;;;5036995;28;20123;-69
2021/12/16 02:29:25;;;;;;;25.15;12.27;;;0.80;99.90;;;;;;5036610;28;20048;-71
2021/12/16 02:36:49;;;;;;;27.33;12.88;;;0.80;99.90;;;;;;5036307;28;20102;-70
2021/12/16 02:39:18;;;;;;;21.65;11.80;;;0.80;99.90;;;;;;5036629;28;20057;-70
2021/12/16 02:41:49;;;;;;;24.42;12.40;;;0.80;99.90;;;;;;5018886;28;20091;-70
2021/12/16 02:49:49;;;;;;;21.42;10.70;;;0.80;99.90;;;;;;5036839;28;20041;-70
2021/12/16 02:52:20;;;;;;;20.33;10.10;;;0.80;99.90;;;;;;5035859;28;20087;-70
2021/12/16 02:54:48;;;;;;;16.85;7.20;;;0.80;99.90;;;;;;5038168;28;20037;-70
2021/12/16 02:57:16;;;;;;;12.73;7.63;;;0.80;99.90;;;;;;5036425;28;20072;-70
2021/12/16 02:59:45;;;;;;;13.43;6.40;;;0.80;99.90;;;;;;5035743;28;20053;-71
2021/12/16 03:02:16;;;;;;;15.15;8.35;;;0.80;99.90;;;;;;5035508;28;20135;-71
2021/12/16 03:04:48;;;;;;;12.80;7.03;;;0.90;99.90;;;;;;5034448;28;20053;-70
2021/12/16 03:07:16;;;;;;;13.07;7.80;;;0.90;99.90;;;;;;5035008;28;20512;-70
2021/12/16 03:10:21;;;;;;;13.60;7.95;;;0.90;99.90;;;;;;5018583;28;20080;-70
2021/12/16 03:13:24;;;;;;;;;;;0.90;99.90;;;;;;5015496;28;20423;-70
2021/12/16 03:18:38;;;;;;;16.20;9.38;;;0.90;99.90;;;;;;5035254;28;20048;-70
2021/12/16 03:21:20;;;;;;;18.88;10.15;;;0.80;99.90;;;;;;5035672;28;20114;-70
2021/12/16 03:24:15;;;;;;;18.55;10.18;;;0.80;99.90;;;;;;5014283;28;20100;-69
2021/12/16 03:29:33;;;;;;;17.10;9.48;;;0.80;99.90;;;;;;5015547;28;20116;-71
2021/12/16 03:35:14;;;;;;;13.57;8.30;;;0.80;99.90;;;;;;5003787;28;20041;-70
2021/12/16 03:37:41;;;;;;;18.83;10.02;;;0.80;99.90;;;;;;5016424;28;20060;-70
2021/12/16 03:40:12;;;;;;;14.48;9.02;;;0.80;99.90;;;;;;5015347;28;20041;-70
2021/12/16 03:42:50;;;;;;;14.48;8.38;;;0.80;99.90;;;;;;5015210;28;20532;-70
2021/12/16 03:48:32;;;;;;;16.40;9.15;;;0.90;99.90;;;;;;5021175;28;20524;-70
2021/12/16 03:51:04;;;;;;;19.75;10.63;;;0.90;99.90;;;;;;5034418;28;20401;-70
2021/12/16 03:53:31;;;;;;;18.45;10.40;;;0.80;99.90;;;;;;5035113;28;20044;-70
2021/12/16 03:55:58;;;;;;;15.25;9.10;;;0.80;99.90;;;;;;5034038;28;20593;-70
2021/12/16 03:58:30;;;;;;;16.40;10.70;;;0.80;99.90;;;;;;5034947;28;20044;-70
2021/12/16 04:01:04;;;;;;;21.73;10.85;;;0.90;99.90;;;;;;5031129;28;20040;-70
2021/12/16 04:03:31;;;;;;;16.42;10.52;;;0.90;99.90;;;;;;5034908;28;20762;-70
2021/12/16 04:05:59;;;;;;;20.15;12.07;;;0.80;99.90;;;;;;5034347;28;20154;-70
2021/12/16 04:08:27;;;;;;;21.17;11.43;;;0.80;99.90;;;;;;5034319;28;20053;-69
2021/12/16 04:11:06;;;;;;;23.08;13.27;;;0.80;99.90;;;;;;5033154;28;20045;-70
2021/12/16 04:13:54;;;;;;;22.10;11.68;;;0.80;99.90;;;;;;5031962;28;20295;-70
2021/12/16 04:16:35;;;;;;;24.40;13.35;;;0.80;99.90;;;;;;5018296;28;20353;-70
2021/12/16 04:19:33;;;;;;;23.92;13.23;;;0.80;99.90;;;;;;5031105;28;20025;-69
2021/12/16 04:22:11;;;;;;;22.73;12.90;;;0.80;99.90;;;;;;5022813;28;20063;-70
2021/12/16 04:24:40;;;;;;;23.88;13.10;;;0.80;99.90;;;;;;5034370;28;20508;-70
2021/12/16 04:27:08;;;;;;;26.67;13.93;;;0.80;99.90;;;;;;5038037;28;20055;-71
2021/12/16 04:29:37;;;;;;;27.40;14.70;;;0.80;99.90;;;;;;5037012;28;20445;-70
2021/12/16 04:32:05;;;;;;;26.40;14.70;;;0.80;99.90;;;;;;5038484;28;20079;-71
2021/12/16 04:34:32;;;;;;;25.08;15.38;;;0.80;99.90;;;;;;5037831;28;20056;-71
2021/12/16 04:37:01;;;;;;;31.80;16.25;;;0.80;99.90;;;;;;5037908;28;20071;-70
2021/12/16 04:39:31;;;;;;;31.92;17.27;;;0.80;99.90;;;;;;5037632;28;20310;-70
2021/12/16 04:41:59;;;;;;;28.80;16.65;;;0.80;99.90;;;;;;5037766;28;20053;-70
2021/12/16 04:44:27;;;;;;;30.48;16.35;;;0.80;99.90;;;;;;5037574;28;20049;-70
2021/12/16 04:46:56;;;;;;;50.05;19.02;;;0.70;99.90;;;;;;5037933;28;20539;-70
2021/12/16 04:49:23;;;;;;;96.20;24.40;;;0.80;99.90;;;;;;5037067;28;20095;-70
2021/12/16 04:51:54;;;;;;;29.75;18.23;;;0.70;99.90;;;;;;5036925;28;20337;-70
2021/12/16 04:54:24;;;;;;;31.75;17.17;;;0.80;99.90;;;;;;5039160;28;20045;-70
2021/12/16 04:56:54;;;;;;;39.15;20.10;;;0.70;99.90;;;;;;5037736;28;20437;-70
2021/12/16 04:59:23;;;;;;;33.38;18.20;;;0.70;99.90;;;;;;5035924;28;20135;-70
2021/12/16 05:01:55;;;;;;;30.08;17.23;;;0.70;99.90;;;;;;5037685;28;20087;-70
2021/12/16 05:04:42;;;;;;;94.28;20.58;;;0.70;99.90;;;;;;5038276;28;20873;-70
2021/12/16 05:07:10;;;;;;;36.15;19.35;;;0.70;99.90;;;;;;5038959;28;20123;-70
2021/12/16 05:12:20;;;;;;;64.72;18.92;;;0.70;99.90;;;;;;5037904;28;20052;-70
2021/12/16 05:14:48;;;;;;;182.50;26.05;;;0.70;99.90;;;;;;5038089;28;20106;-70
2021/12/16 05:17:52;;;;;;;80.10;20.27;;;0.70;99.90;;;;;;5021432;28;20649;-70
2021/12/16 05:20:14;;;;;;;28.80;15.98;;;0.70;99.90;;;;;;5014750;28;20049;-70
2021/12/16 05:25:42;;;;;;;485.95;36.42;;;0.70;99.90;;;;;;5037470;28;20048;-70
2021/12/16 05:28:10;;;;;;;27.27;15.82;;;0.70;99.90;;;;;;5036290;28;20469;-70
2021/12/16 05:30:37;;;;;;;46.55;17.85;;;0.70;99.90;;;;;;5036910;28;20124;-69
2021/12/16 05:33:04;;;;;;;331.38;33.53;;;0.70;99.90;;;;;;5038148;28;20049;-70
2021/12/16 05:35:32;;;;;;;40.75;17.38;;;0.70;99.90;;;;;;5037656;28;20065;-70
2021/12/16 05:37:59;;;;;;;40.22;18.50;;;0.70;99.90;;;;;;5038115;28;20048;-71
2021/12/16 05:40:28;;;;;;;111.43;23.58;;;0.70;99.90;;;;;;5036969;28;20378;-70
2021/12/16 05:43:14;;;;;;;31.02;16.05;;;0.70;99.90;;;;;;5036872;28;20126;-71
2021/12/16 05:45:42;;;;;;;164.80;23.38;;;0.70;99.90;;;;;;5036306;28;20094;-70
2021/12/16 05:48:13;;;;;;;118.45;22.55;;;0.80;99.90;;;;;;5036750;28;20048;-70
2021/12/16 05:50:45;;;;;;;156.98;23.17;;;0.70;99.90;;;;;;5035874;28;20047;-71
2021/12/16 05:53:11;;;;;;;179.63;23.98;;;0.70;99.90;;;;;;5038467;28;20045;-70
2021/12/16 05:55:38;;;;;;;176.93;28.40;;;0.80;99.90;;;;;;5036748;28;20435;-70
2021/12/16 05:58:18;;;;;;;235.18;27.30;;;0.70;99.90;;;;;;5036074;28;20076;-70
2021/12/16 06:00:49;;;;;;;350.60;32.72;;;0.70;99.90;;;;;;5035634;28;20049;-69
2021/12/16 06:03:21;;;;;;;355.15;34.80;;;0.70;99.90;;;;;;5036255;28;20059;-69
2021/12/16 06:05:49;;;;;;;397.52;29.38;;;0.70;99.90;;;;;;5035892;28;20436;-69
2021/12/16 06:08:16;;;;;;;235.27;24.55;;;0.70;99.90;;;;;;5036218;28;20480;-69
2021/12/16 06:13:12;;;;;;;151.98;24.05;;;0.70;99.90;;;;;;5037268;28;20141;-70
2021/12/16 06:27:02;;;;;;;33.45;17.20;;;0.70;99.90;;;;;;5017989;28;20673;-57
2021/12/16 06:29:29;;;;;;;48.00;20.33;;;0.60;99.90;;;;;;5018283;28;20521;-57
2021/12/16 06:31:56;;;;;;;41.35;17.70;;;0.60;99.90;;;;;;5017546;28;20761;-57
2021/12/16 06:34:24;;;;;;;31.40;15.50;;;0.70;99.90;;;;;;5016514;28;20319;-57
2021/12/16 06:36:51;;;;;;;29.63;13.93;;;0.70;99.90;;;;;;5016389;28;20464;-57
2021/12/16 06:39:19;;;;;;;21.08;11.48;;;0.70;99.90;;;;;;5015067;28;20292;-57
2021/12/16 06:42:08;;;;;;;23.40;10.98;;;0.70;99.90;;;;;;5017551;28;20064;-57
2021/12/16 06:44:55;;;;;;;15.15;8.25;;;0.70;99.90;;;;;;5016136;28;20056;-57
2021/12/16 06:47:32;;;;;;;12.48;6.90;;;0.70;99.90;;;;;;5017435;28;20049;-57
2021/12/16 06:49:58;;;;;;;14.52;8.50;;;0.70;99.90;;;;;;5035062;28;20057;-57
2021/12/16 06:52:33;;;;;;;15.98;9.30;;;0.70;99.90;;;;;;5037801;28;20045;-57
2021/12/16 06:55:09;;;;;;;16.13;8.00;;;0.70;99.90;;;;;;5037923;28;20119;-57
2021/12/16 07:00:14;;;;;;;13.00;7.22;;;0.70;99.90;;;;;;5036575;28;20041;-57
2021/12/16 07:05:16;;;;;;;14.70;8.00;;;0.70;99.90;;;;;;5035553;28;20041;-57
2021/12/16 07:07:43;;;;;;;13.57;8.48;;;0.70;99.90;;;;;;5037001;28;20074;-57
2021/12/16 07:10:12;;;;;;;13.40;7.95;;;0.70;99.90;;;;;;5035241;28;20045;-57
2021/12/16 07:12:47;;;;;;;18.25;10.57;;;0.70;99.90;;;;;;5036298;28;20045;-57
2021/12/16 07:15:18;;;;;;;19.48;9.88;;;0.70;99.90;;;;;;5036155;28;20524;-57
2021/12/16 07:17:45;;;;;;;24.17;12.65;;;0.70;99.90;;;;;;5035872;28;20079;-57
2021/12/16 07:20:15;;;;;;;21.00;11.68;;;0.70;99.90;;;;;;5015695;28;20131;-57
2021/12/16 07:22:42;;;;;;;21.88;11.63;;;0.70;99.90;;;;;;5030734;28;20067;-57
2021/12/16 07:25:09;;;;;;;26.33;11.40;;;0.80;99.90;;;;;;5036559;28;20320;-57
2021/12/16 07:27:36;;;;;;;18.02;9.57;;;0.80;99.90;;;;;;5035392;28;20672;-57
2021/12/16 07:30:07;;;;;;;15.20;7.88;;;0.80;99.90;;;;;;5035888;28;20395;-57
2021/12/16 07:32:35;;;;;;;14.02;8.25;;;0.80;99.90;;;;;;5036174;28;20237;-57
2021/12/16 07:35:06;;;;;;;13.85;8.32;;;0.80;99.90;;;;;;5035358;28;20398;-57
2021/12/16 07:37:33;;;;;;;18.80;10.48;;;0.80;99.90;;;;;;5036159;28;20045;-57
2021/12/16 07:40:06;;;;;;;19.98;10.52;;;0.80;99.90;;;;;;5035214;28;20060;-57
2021/12/16 07:42:47;;;;;;;19.33;10.65;;;0.80;99.90;;;;;;5036208;28;20432;-57
2021/12/16 07:45:17;;;;;;;19.65;9.40;;;0.80;99.90;;;;;;5035622;28;20049;-57
2021/12/16 07:47:45;;;;;;;14.85;8.70;;;0.90;99.90;;;;;;5036004;28;20911;-57
2021/12/16 07:50:13;;;;;;;17.58;9.85;;;0.90;99.90;;;;;;5014750;28;20611;-57
2021/12/16 07:52:41;;;;;;;17.27;9.52;;;0.90;99.90;;;;;;5016409;28;20356;-57
2021/12/16 07:55:10;;;;;;;17.23;9.80;;;0.90;99.90;;;;;;5016081;28;20041;-57
2021/12/16 07:57:38;;;;;;;17.17;9.60;;;0.90;99.90;;;;;;5015469;28;20609;-56
2021/12/16 08:00:13;;;;;;;14.05;8.48;;;0.90;99.90;;;;;;5015284;28;20042;-56
2021/12/16 08:02:40;;;;;;;17.77;9.82;;;1.00;99.90;;;;;;5034401;28;20049;-56
2021/12/16 08:05:08;;;;;;;16.67;9.25;;;1.00;99.90;;;;;;5034454;28;20142;-55
2021/12/16 08:07:36;;;;;;;19.73;10.57;;;1.00;99.90;;;;;;5035031;28;20053;-55
2021/12/16 08:10:06;;;;;;;16.40;8.88;;;1.00;99.90;;;;;;5033999;28;20114;-55
2021/12/16 08:12:33;;;;;;;17.27;10.05;;;1.00;99.90;;;;;;5034995;28;20068;-55
2021/12/16 08:15:00;;;;;;;18.30;10.15;;;1.00;99.90;;;;;;5035447;28;20060;-54
2021/12/16 08:17:27;;;;;;;16.58;9.82;;;1.00;99.90;;;;;;5034961;28;20052;-55
2021/12/16 08:19:54;;;;;;;22.20;10.50;;;1.00;99.90;;;;;;5033865;28;20207;-55
2021/12/16 08:22:21;;;;;;;;;;;1.10;99.90;;;;;;5036586;28;20126;-57
2021/12/16 08:24:48;;;;;;;15.52;8.43;;;1.10;99.90;;;;;;5036110;28;19925;-57
2021/12/16 08:27:15;;;;;;;17.75;9.68;;;1.10;99.90;;;;;;5035899;28;20098;-58
2021/12/16 08:29:43;;;;;;;13.18;8.07;;;1.10;99.90;;;;;;5033260;28;20053;-58
2021/12/16 08:32:11;;;;;;;17.80;9.27;;;1.10;99.90;;;;;;5036438;28;20087;-55
2021/12/16 08:34:39;;;;;;;16.98;8.10;;;1.10;99.90;;;;;;5035373;28;20102;-58
2021/12/16 08:37:09;;;;;;;14.25;8.00;;;1.10;99.90;;;;;;5036596;28;20098;-56
2021/12/16 08:39:37;;;;;;;16.48;8.90;;;1.20;99.90;;;;;;5033140;28;20056;-56
2021/12/16 08:42:06;;;;;;;22.65;8.68;;;1.20;99.90;;;;;;5035757;28;20050;-58
2021/12/16 08:44:33;;;;;;;15.52;7.60;;;1.20;99.90;;;;;;5035115;28;20102;-58
2021/12/16 08:47:13;;;;;;;17.90;7.93;;;1.20;99.90;;;;;;5034220;28;20049;-58
2021/12/16 08:49:41;;;;;;;11.38;7.28;;;1.20;99.90;;;;;;5032752;28;20480;-58
2021/12/16 08:52:13;;;;;;;9.45;5.60;;;1.20;99.90;;;;;;5034452;28;20524;-58
2021/12/16 08:54:41;;;;;;;12.82;6.55;;;1.30;99.90;;;;;;5033616;28;20241;-56
2021/12/16 08:57:08;;;;;;;11.48;6.38;;;1.30;99.90;;;;;;5034098;28;20429;-55
2021/12/16 08:59:35;;;;;;;7.28;5.25;;;1.30;99.90;;;;;;5034162;28;20041;-55
2021/12/16 09:02:07;;;;;;;8.88;5.68;;;1.30;99.90;;;;;;5040920;28;20125;-55
2021/12/16 09:04:36;;;;;;;8.68;5.93;;;1.30;99.90;;;;;;5043489;28;20072;-55
2021/12/16 09:07:08;;;;;;;10.23;5.82;;;1.30;99.90;;;;;;5054713;28;20508;-56
2021/12/16 09:09:36;;;;;;;9.65;6.15;;;1.40;99.90;;;;;;5052076;28;20097;-56
2021/12/16 09:12:12;;;;;;;8.43;5.60;;;1.40;99.90;;;;;;5057030;28;20611;-55
2021/12/16 09:14:41;;;;;;;9.57;5.40;;;1.40;99.90;;;;;;5057942;28;20424;-54
2021/12/16 09:17:13;;;;;;;7.57;5.32;;;1.40;99.90;;;;;;5056993;28;20036;-55
2021/12/16 09:19:51;;;;;;;9.40;5.50;;;1.40;99.90;;;;;;5056887;28;20044;-55
2021/12/16 09:22:20;;;;;;;6.95;4.70;;;1.40;99.90;;;;;;5058977;28;20569;-56
2021/12/16 09:24:48;;;;;;;5.75;4.63;;;1.40;99.90;;;;;;5058474;28;20094;-56
2021/12/16 09:27:16;;;;;;;5.75;4.07;;;1.40;99.90;;;;;;5058737;28;20048;-58
2021/12/16 09:29:44;;;;;;;7.85;5.32;;;1.40;99.90;;;;;;5058794;28;20040;-57
2021/12/16 09:32:10;;;;;;;7.32;4.43;;;1.50;99.90;;;;;;5059028;28;20052;-58
2021/12/16 09:34:41;;;;;;;7.47;5.07;;;1.40;99.90;;;;;;5059074;28;20741;-57
2021/12/16 09:37:08;;;;;;;10.23;5.05;;;1.50;99.90;;;;;;5058801;28;20045;-58
2021/12/16 09:39:36;;;;;;;6.18;4.70;;;1.50;99.90;;;;;;5056959;28;20557;-58
2021/12/16 09:42:06;;;;;;;7.45;5.32;;;1.50;99.90;;;;;;5057673;28;20659;-58
2021/12/16 09:44:33;;;;;;;8.43;5.00;;;1.50;99.90;;;;;;5058171;28;20059;-58
2021/12/16 09:47:01;;;;;;;6.18;4.57;;;1.50;99.90;;;;;;5057490;28;20118;-58
2021/12/16 09:49:28;;;;;;;6.78;4.90;;;1.50;99.90;;;;;;5055498;28;20118;-58
2021/12/16 09:51:57;;;;;;;6.72;4.75;;;1.50;99.90;;;;;;5057703;28;20477;-55
2021/12/16 09:54:27;;;;;;;12.90;5.25;;;1.50;99.90;;;;;;5056470;28;20096;-59
2021/12/16 09:56:55;;;;;;;7.10;4.50;;;1.50;99.90;;;;;;5057611;28;20520;-59
2021/12/16 09:59:25;;;;;;;8.65;5.25;;;1.50;99.90;;;;;;5056044;28;20044;-54
2021/12/16 10:01:55;;;;;;;6.50;4.53;;;1.60;99.90;;;;;;5057252;28;20109;-58
2021/12/16 10:04:27;;;;;;;7.20;4.70;;;1.60;99.90;;;;;;5057039;28;20044;-58
2021/12/16 10:06:56;;;;;;;5.80;4.45;;;1.60;99.90;;;;;;5057288;28;20367;-58
2021/12/16 10:09:24;;;;;;;6.95;4.47;;;1.60;99.90;;;;;;5056130;28;20049;-58
2021/12/16 10:11:54;;;;;;;7.68;5.50;;;1.60;99.90;;;;;;5057408;28;20129;-56
2021/12/16 10:19:44;;;;;;;10.45;5.88;;;1.70;99.90;;;;;;5053197;28;20040;-57
2021/12/16 10:22:38;;;;;;;6.25;4.35;;;1.70;99.90;;;;;;5056062;28;20554;-56
2021/12/16 10:25:34;;;;;;;6.40;4.70;;;1.70;99.90;;;;;;5055462;28;20169;-56
2021/12/16 10:28:23;;;;;;;6.60;4.95;;;1.70;99.90;;;;;;5054187;28;20075;-57
2021/12/16 10:31:00;;;;;;;9.55;6.05;;;1.70;99.90;;;;;;5054760;28;20056;-59
2021/12/16 10:33:35;;;;;;;8.70;4.95;;;1.70;99.90;;;;;;5055328;28;20388;-57
2021/12/16 10:36:10;;;;;;;6.88;4.85;;;1.70;99.90;;;;;;5054676;28;20587;-59
2021/12/16 10:38:49;;;;;;;6.15;4.40;;;1.70;99.90;;;;;;5056103;28;20044;-59
2021/12/16 10:41:24;;;;;;;6.90;4.00;;;1.70;99.90;;;;;;5056010;28;20056;-59
2021/12/16 10:44:05;;;;;;;4.43;3.22;;;1.70;99.90;;;;;;5061382;28;20048;-56
2021/12/16 10:46:43;;;;;;;6.72;4.70;;;1.70;99.90;;;;;;5041009;28;20045;-55
2021/12/16 10:49:16;;;;;;;16.48;6.13;;;1.70;99.90;;;;;;5057361;28;20037;-56
2021/12/16 10:51:44;;;;;;;7.00;4.90;;;1.70;99.90;;;;;;5053036;28;20075;-55
2021/12/16 10:54:22;;;;;;;6.30;3.88;;;1.70;99.90;;;;;;5058109;28;20052;-56
2021/12/16 10:57:04;;;;;;;;;;;1.70;99.90;;;;;;5062420;28;20102;-59
2021/12/16 10:59:37;;;;;;;7.13;3.05;;;1.70;99.90;;;;;;5039663;28;19952;-57
2021/12/16 11:02:12;;;;;;;3.58;2.63;;;1.70;99.90;;;;;;5061059;28;20083;-59
2021/12/16 11:05:02;;;;;;;5.93;4.15;;;1.70;99.90;;;;;;5061395;28;20052;-59
2021/12/16 11:07:34;;;;;;;3.95;3.15;;;1.80;99.90;;;;;;5061752;28;20479;-59
2021/12/16 11:10:33;;;;;;;3.75;2.92;;;1.80;99.90;;;;;;5061191;28;20049;-58
2021/12/16 11:13:09;;;;;;;4.38;3.50;;;1.80;99.90;;;;;;5061302;28;20052;-59
2021/12/16 11:15:40;;;;;;;8.70;3.50;;;1.80;99.90;;;;;;5061422;28;20463;-59
2021/12/16 11:18:21;;;;;;;5.13;4.30;;;1.80;99.90;;;;;;5061043;28;20052;-59
2021/12/16 11:20:54;;;;;;;4.72;3.78;;;1.80;99.90;;;;;;5061784;28;20047;-60
2021/12/16 11:23:33;;;;;;;6.35;4.07;;;1.80;99.90;;;;;;5058752;28;20527;-59
2021/12/16 11:26:09;;;;;;;7.05;3.75;;;1.80;99.90;;;;;;5061174;28;20087;-58
2021/12/16 11:28:41;;;;;;;7.30;4.38;;;1.80;99.90;;;;;;5061738;28;20045;-57
2021/12/16 11:31:13;;;;;;;5.82;3.65;;;1.80;99.90;;;;;;5053978;28;20141;-57
2021/12/16 11:33:42;;;;;;;6.32;4.13;;;1.80;99.90;;;;;;5059000;28;20090;-57
2021/12/16 11:36:16;;;;;;;6.43;4.40;;;1.80;99.90;;;;;;5060102;28;20041;-57
2021/12/16 11:39:02;;;;;;;5.88;4.38;;;1.80;99.90;;;;;;5060769;28;20036;-57
2021/12/16 11:41:36;;;;;;;6.00;3.60;;;1.80;99.90;;;;;;5058349;28;20049;-57
2021/12/16 11:44:09;;;;;;;6.32;4.00;;;1.80;99.90;;;;;;5059462;28;20066;-57
2021/12/16 11:46:57;;;;;;;6.53;4.68;;;1.80;99.90;;;;;;5055422;28;20583;-57
2021/12/16 11:49:32;;;;;;;6.47;4.40;;;1.80;99.90;;;;;;5047729;28;20056;-57
2021/12/16 11:52:07;;;;;;;5.80;4.10;;;1.90;99.90;;;;;;5055070;28;20051;-57
2021/12/16 11:54:43;;;;;;;8.05;4.68;;;1.90;99.90;;;;;;5057187;28;20496;-57
2021/12/16 11:57:23;;;;;;;6.93;4.70;;;1.90;99.90;;;;;;5062309;28;20515;-57
2021/12/16 11:59:58;;;;;;;5.53;4.20;;;1.90;99.90;;;;;;5051752;28;20535;-57
2021/12/16 12:02:36;;;;;;;5.00;3.95;;;1.90;99.90;;;;;;5061176;28;20458;-59
2021/12/16 12:05:31;;;;;;;6.90;4.80;;;1.90;99.90;;;;;;5053978;28;20052;-59
2021/12/16 12:08:11;;;;;;;6.88;5.07;;;1.90;99.90;;;;;;5051283;28;20176;-56
2021/12/16 12:10:53;;;;;;;7.35;5.20;;;1.90;99.90;;;;;;5057418;28;20090;-59
2021/12/16 12:13:28;;;;;;;7.28;4.90;;;1.90;99.90;;;;;;5056718;28;20044;-59
2021/12/16 12:16:04;;;;;;;7.43;4.78;;;1.90;99.90;;;;;;5055691;28;20053;-58
2021/12/16 12:18:39;;;;;;;8.90;4.97;;;1.90;99.90;;;;;;5055520;28;20040;-58
2021/12/16 12:21:37;;;;;;;8.05;5.05;;;1.90;99.90;;;;;;5054992;28;20321;-58
2021/12/16 12:24:14;;;;;;;7.20;4.63;;;1.90;99.90;;;;;;5056800;28;20048;-59
2021/12/16 12:26:47;;;;;;;8.25;5.57;;;1.90;99.90;;;;;;5055964;28;20469;-58
2021/12/16 12:29:29;;;;;;;9.30;5.32;;;1.90;99.90;;;;;;5055991;28;20094;-59
2021/12/16 12:32:00;;;;;;;8.18;4.97;;;1.90;99.90;;;;;;5055841;28;20508;-59
2021/12/16 12:34:29;;;;;;;8.60;5.25;;;1.80;99.90;;;;;;5055534;28;20052;-59
2021/12/16 12:36:59;;;;;;;7.32;4.53;;;1.80;99.90;;;;;;5055701;28;20417;-58
2021/12/16 12:39:32;;;;;;;4.82;3.67;;;1.80;99.90;;;;;;5055075;28;20040;-58
2021/12/16 12:41:59;;;;;;;6.45;4.28;;;1.80;99.90;;;;;;5055352;28;20041;-59
2021/12/16 12:44:26;;;;;;;6.00;3.97;;;1.80;99.90;;;;;;5056071;28;20048;-59
2021/12/16 12:46:53;;;;;;;;;;;1.80;99.90;;;;;;5059660;28;20044;-59
2021/12/16 12:49:25;;;;;;;8.18;4.57;;;1.80;99.90;;;;;;5059470;28;19924;-59
2021/12/16 12:52:02;;;;;;;6.72;4.88;;;1.80;99.90;;;;;;5060372;28;20048;-59
2021/12/16 12:54:32;;;;;;;8.05;4.88;;;1.80;99.90;;;;;;5059237;28;20040;-59
2021/12/16 12:57:16;;;;;;;5.00;3.60;;;1.80;99.90;;;;;;5059483;28;20105;-59
2021/12/16 12:59:43;;;;;;;4.78;3.30;;;1.80;99.90;;;;;;5058162;28;20048;-59
2021/12/16 13:02:15;;;;;;;;;;;1.80;99.90;;;;;;5059953;28;20052;-58
2021/12/16 13:04:54;;;;;;;7.13;4.13;;;1.80;99.90;;;;;;5056587;28;19986;-58
2021/12/16 13:07:43;;;;;;;8.57;4.38;;;1.80;99.90;;;;;;5059101;28;20644;-57
2021/12/16 13:10:38;;;;;;;7.22;4.50;;;1.80;99.90;;;;;;5058381;28;20416;-58
2021/12/16 13:13:31;;;;;;;5.40;3.85;;;1.80;99.90;;;;;;5056931;28;20056;-58
2021/12/16 13:16:24;;;;;;;6.75;3.92;;;1.80;99.90;;;;;;5058731;28;20115;-59
2021/12/16 13:27:43;;;;;;;5.13;3.85;;;1.80;99.90;;;;;;5058597;28;20572;-58
2021/12/16 13:33:00;;;;;;;6.35;4.28;;;1.80;99.90;;;;;;5052842;28;19951;-64
2021/12/16 13:35:41;;;;;;;5.05;3.55;;;1.80;99.90;;;;;;5042023;28;20244;-62
2021/12/16 13:38:08;;;;;;;6.53;4.10;;;1.80;99.90;;;;;;5042802;28;20500;-62
2021/12/16 13:40:40;;;;;;;6.00;3.75;;;1.70;99.90;;;;;;5038746;28;20084;-61
2021/12/16 13:43:17;;;;;;;4.60;3.80;;;1.70;99.90;;;;;;5058271;28;20052;-59
2021/12/16 13:46:35;;;;;;;6.55;3.83;;;1.70;99.90;;;;;;5056508;28;20045;-59
2021/12/16 14:03:13;;;;;;;6.78;4.45;;;1.70;99.90;;;;;;5060727;28;20889;-62
2021/12/16 14:06:15;;;;;;;7.13;4.55;;;1.70;99.90;;;;;;5050041;28;20102;-59
2021/12/16 14:08:51;;;;;;;6.55;4.60;;;1.70;99.90;;;;;;5057934;28;20519;-59
2021/12/16 14:12:39;;;;;;;8.27;5.75;;;1.70;99.90;;;;;;5060596;28;20059;-59
2021/12/16 14:14:46;;;;;;;6.47;4.20;;;1.70;99.90;;;;;;5059000;28;20069;-58
2021/12/16 14:24:41;;;;;;;8.00;5.00;;;1.70;99.90;;;;;;5053211;28;20048;-59
2021/12/16 14:27:05;;;;;;;5.35;4.10;;;1.70;99.90;;;;;;5041516;28;20170;-62
2021/12/16 14:34:58;;;;;;;6.72;4.45;;;1.60;99.90;;;;;;5054047;28;20041;-60
2021/12/16 14:45:42;;;;;;;8.48;5.53;;;1.60;99.90;;;;;;5051835;28;20055;-60
2021/12/16 14:50:55;;;;;;;8.70;5.30;;;1.60;99.90;;;;;;5052709;28;20056;-60
2021/12/16 14:53:29;;;;;;;6.10;4.43;;;1.50;99.90;;;;;;5055136;28;20746;-70
2021/12/16 14:56:17;;;;;;;7.85;4.88;;;1.50;99.90;;;;;;5053736;28;20040;-69
2021/12/16 14:58:50;;;;;;;6.88;4.32;;;1.50;99.90;;;;;;5053599;28;20040;-65
2021/12/16 15:01:21;;;;;;;7.13;4.85;;;1.50;99.90;;;;;;5036279;28;20135;-66
2021/12/16 15:03:50;;;;;;;19.58;4.65;;;1.50;99.90;;;;;;5052653;28;20726;-72
2021/12/16 15:06:26;;;;;;;11.25;5.68;;;1.50;99.90;;;;;;5055752;28;20045;-65
2021/12/16 15:09:13;;;;;;;10.80;5.68;;;1.50;99.90;;;;;;5052410;28;20056;-65
2021/12/16 15:12:02;;;;;;;7.40;5.40;;;1.70;99.90;;;;;;5051849;28;20048;-65
2021/12/16 15:17:37;;;;;;;9.40;5.63;;;1.70;99.90;;;;;;5052157;28;20106;-71
2021/12/16 15:37:27;;;;;;;8.32;5.57;;;1.50;99.90;;;;;;5014811;28;20029;-69
2021/12/16 15:45:23;;;;;;;9.88;6.00;;;1.50;99.90;;;;;;5012538;28;20272;-74
2021/12/16 15:47:53;;;;;;;10.80;6.38;;;1.50;99.90;;;;;;5012180;28;20048;-67
2021/12/16 15:50:27;;;;;;;7.72;5.57;;;1.50;99.90;;;;;;5012527;28;20073;-67
2021/12/16 15:52:55;;;;;;;11.80;6.32;;;1.50;99.90;;;;;;5012858;28;20099;-67
2021/12/16 15:55:45;;;;;;;8.32;5.75;;;1.50;99.90;;;;;;5013214;28;20654;-67
2021/12/16 15:58:26;;;;;;;8.27;5.47;;;1.50;99.90;;;;;;5012260;28;20084;-67
2021/12/16 16:01:02;;;;;;;8.30;6.07;;;1.50;99.90;;;;;;5009863;28;20512;-69
2021/12/16 16:03:30;;;;;;;10.13;6.72;;;1.40;99.90;;;;;;4993524;28;20375;-70
2021/12/16 16:06:01;;;;;;;10.25;6.15;;;1.40;99.90;;;;;;4992937;28;20042;-71
2021/12/16 16:08:30;;;;;;;8.77;6.10;;;1.50;99.90;;;;;;4993133;28;20426;-73
2021/12/16 16:11:03;;;;;;;10.82;7.15;;;1.40;99.90;;;;;;4992820;28;20104;-71
2021/12/16 16:13:37;;;;;;;8.90;5.90;;;1.40;99.90;;;;;;4993093;28;20056;-70
2021/12/16 16:16:06;;;;;;;9.27;5.72;;;1.40;99.90;;;;;;4993093;28;20038;-72
2021/12/16 16:18:37;;;;;;;9.23;6.63;;;1.40;99.90;;;;;;5011299;28;20071;-72
2021/12/16 16:21:15;;;;;;;10.30;6.10;;;1.40;99.90;;;;;;5011181;28;20053;-75
2021/12/16 16:23:47;;;;;;;10.48;6.80;;;1.50;99.90;;;;;;5016799;28;20064;-68
2021/12/16 16:26:15;;;;;;;10.98;6.25;;;1.50;99.90;;;;;;5014742;28;20096;-68
2021/12/16 16:28:44;;;;;;;9.75;6.85;;;1.40;99.90;;;;;;5011485;28;20525;-71
2021/12/16 16:31:18;;;;;;;10.85;6.85;;;1.50;99.90;;;;;;5000377;28;20041;-71
2021/12/16 16:33:46;;;;;;;11.25;6.50;;;1.40;99.90;;;;;;5016985;28;20130;-66
2021/12/16 16:36:15;;;;;;;9.95;6.15;;;1.40;99.90;;;;;;5014745;28;20064;-65
2021/12/16 16:38:49;;;;;;;8.82;6.45;;;1.40;99.90;;;;;;5016977;28;20045;-64
2021/12/16 16:41:19;;;;;;;9.73;6.88;;;1.40;99.90;;;;;;5015990;28;20064;-65
2021/12/16 16:43:57;;;;;;;9.88;6.68;;;1.40;99.90;;;;;;5015879;28;20052;-66
2021/12/16 16:46:35;;;;;;;7.60;5.80;;;1.40;99.90;;;;;;5014883;28;20081;-67
2021/12/16 16:49:07;;;;;;;10.00;6.50;;;1.40;99.90;;;;;;5013977;28;20917;-68
2021/12/16 16:51:46;;;;;;;8.68;6.43;;;1.40;99.90;;;;;;5016165;28;20227;-68
2021/12/16 16:54:30;;;;;;;15.55;9.27;;;1.40;99.90;;;;;;5014741;28;20050;-70
2021/12/16 16:57:01;;;;;;;9.13;6.75;;;1.40;99.90;;;;;;5016175;28;20572;-68
2021/12/16 16:59:31;;;;;;;12.85;7.97;;;1.40;99.90;;;;;;5013792;28;20460;-67
2021/12/16 17:02:00;;;;;;;12.27;7.75;;;1.40;99.90;;;;;;5014587;28;20049;-67
2021/12/16 17:04:32;;;;;;;19.30;8.55;;;1.40;99.90;;;;;;5014502;28;20057;-67
2021/12/16 17:07:00;;;;;;;14.90;8.75;;;1.40;99.90;;;;;;5014119;28;20203;-66